Time;durP1;ratioP1;P1;durP2;ratioP2;P2;SDS_P1;SDS_P2;PMS_P1;PMS_P2;Temp;Humidity;BMP_temperature;BMP_pressure;BME280_temperature;BME280_humidity;BME280_pressure;Samples;Min_cycle;Max_cycle;Signal;HPM_P1;HPM_P2
2023/12/04 00:00:12;;;;;;;28.13;20.63;;;-0.10;99.90;;;;;;5033877;28;20452;-77
2023/12/04 00:02:41;;;;;;;25.13;17.77;;;-0.10;99.90;;;;;;5033810;28;20482;-77
2023/12/04 00:05:09;;;;;;;26.13;17.60;;;-0.10;99.90;;;;;;5034062;28;20449;-77
2023/12/04 00:07:39;;;;;;;24.87;19.23;;;-0.10;99.90;;;;;;5033997;28;20447;-77
2023/12/04 00:10:08;;;;;;;27.73;20.53;;;-0.10;99.90;;;;;;5033995;28;20474;-77
2023/12/04 00:12:36;;;;;;;25.67;18.50;;;-0.10;99.90;;;;;;5033795;28;20506;-77
2023/12/04 00:15:05;;;;;;;28.00;19.30;;;-0.10;99.90;;;;;;5034073;28;20475;-77
2023/12/04 00:17:33;;;;;;;28.70;19.20;;;-0.10;99.90;;;;;;5033671;28;20984;-77
2023/12/04 00:20:02;;;;;;;28.77;19.07;;;-0.10;99.90;;;;;;5033942;28;20538;-77
2023/12/04 00:22:30;;;;;;;27.97;20.20;;;-0.10;99.90;;;;;;5035080;28;20502;-77
2023/12/04 00:25:00;;;;;;;22.37;17.70;;;-0.10;99.90;;;;;;5033783;28;20465;-77
2023/12/04 00:27:28;;;;;;;28.70;20.40;;;-0.10;99.90;;;;;;5033655;28;20485;-77
2023/12/04 00:29:57;;;;;;;28.10;20.90;;;-0.10;99.90;;;;;;5034941;28;20983;-77
2023/12/04 00:32:25;;;;;;;29.23;21.47;;;-0.10;99.90;;;;;;5033743;28;20992;-77
2023/12/04 00:34:54;;;;;;;27.43;19.97;;;-0.10;99.90;;;;;;5033459;28;21014;-77
2023/12/04 00:37:22;;;;;;;29.43;21.10;;;-0.10;99.90;;;;;;5033295;28;20479;-77
2023/12/04 00:39:50;;;;;;;31.53;20.77;;;-0.10;99.90;;;;;;5033062;28;20451;-77
2023/12/04 00:42:20;;;;;;;30.80;20.30;;;-0.10;99.90;;;;;;5033154;28;20533;-77
2023/12/04 00:44:48;;;;;;;29.03;20.67;;;-0.10;99.90;;;;;;5032915;28;20601;-77
2023/12/04 00:47:17;;;;;;;31.03;20.70;;;-0.10;99.90;;;;;;5033003;28;20479;-77
2023/12/04 00:49:45;;;;;;;37.80;20.80;;;0.00;99.90;;;;;;5032779;28;20455;-77
2023/12/04 00:52:13;;;;;;;29.10;21.67;;;-0.10;99.90;;;;;;5032590;28;20526;-77
2023/12/04 00:54:42;;;;;;;32.80;21.73;;;-0.10;99.90;;;;;;5034278;28;20438;-77
2023/12/04 00:57:10;;;;;;;31.37;21.80;;;-0.10;99.90;;;;;;5032726;28;20869;-77
2023/12/04 00:59:40;;;;;;;30.17;19.83;;;-0.10;99.90;;;;;;5032621;28;20451;-77
2023/12/04 01:02:08;;;;;;;29.03;19.87;;;-0.10;99.90;;;;;;5033453;28;20944;-77
2023/12/04 01:04:37;;;;;;;29.20;20.37;;;-0.10;99.90;;;;;;5034065;28;20439;-77
2023/12/04 01:07:05;;;;;;;31.27;21.20;;;-0.10;99.90;;;;;;5032314;28;20536;-77
2023/12/04 01:09:35;;;;;;;31.80;22.97;;;-0.10;99.90;;;;;;5032584;28;20490;-77
2023/12/04 01:12:05;;;;;;;31.47;20.57;;;-0.10;99.90;;;;;;5035451;28;20434;-77
2023/12/04 01:14:33;;;;;;;30.17;21.57;;;-0.10;99.90;;;;;;5039016;28;20541;-77
2023/12/04 01:17:03;;;;;;;28.83;21.93;;;-0.10;99.90;;;;;;5038920;28;20525;-77
2023/12/04 01:19:32;;;;;;;33.00;22.20;;;-0.10;99.90;;;;;;5040226;28;20438;-77
2023/12/04 01:22:00;;;;;;;26.67;18.73;;;-0.10;99.90;;;;;;5039008;28;20454;-77
2023/12/04 01:24:28;;;;;;;30.20;20.00;;;-0.10;99.90;;;;;;5038682;28;20442;-77
2023/12/04 01:26:56;;;;;;;29.37;20.37;;;-0.10;99.90;;;;;;5039036;28;20452;-77
2023/12/04 01:29:25;;;;;;;31.00;22.13;;;0.00;99.90;;;;;;5038978;28;20450;-77
2023/12/04 01:31:54;;;;;;;31.37;21.93;;;-0.10;99.90;;;;;;5038730;28;20450;-78
2023/12/04 01:34:24;;;;;;;29.50;20.70;;;-0.10;99.90;;;;;;5038828;28;20493;-77
2023/12/04 01:36:52;;;;;;;28.33;19.73;;;-0.10;99.90;;;;;;5038698;28;20439;-77
2023/12/04 01:39:20;;;;;;;30.40;20.73;;;-0.10;99.90;;;;;;5040322;28;20462;-77
2023/12/04 01:41:49;;;;;;;28.97;19.00;;;-0.10;99.90;;;;;;5039787;28;20448;-77
2023/12/04 01:44:17;;;;;;;30.30;19.60;;;-0.10;99.90;;;;;;5038555;28;20914;-77
2023/12/04 01:46:46;;;;;;;27.77;18.83;;;0.00;99.90;;;;;;5038433;28;20472;-77
2023/12/04 01:49:15;;;;;;;23.73;19.13;;;-0.10;99.90;;;;;;5038866;28;20451;-78
2023/12/04 01:51:45;;;;;;;27.17;19.50;;;-0.10;99.90;;;;;;5038460;28;20534;-78
2023/12/04 01:54:14;;;;;;;28.20;19.03;;;-0.10;99.90;;;;;;5038714;28;20478;-77
2023/12/04 01:56:44;;;;;;;26.47;18.53;;;0.00;99.90;;;;;;5038516;28;20476;-78
2023/12/04 01:59:13;;;;;;;26.57;18.57;;;0.00;99.90;;;;;;5038537;28;20470;-77
2023/12/04 02:01:41;;;;;;;26.73;19.27;;;0.00;99.90;;;;;;5040396;28;20529;-78
2023/12/04 02:04:10;;;;;;;26.33;19.00;;;0.00;99.90;;;;;;5038254;28;20470;-78
2023/12/04 02:06:38;;;;;;;27.53;19.70;;;0.00;99.90;;;;;;5040049;28;20928;-77
2023/12/04 02:09:12;;;;;;;27.23;18.03;;;0.00;99.90;;;;;;5038129;28;20447;-78
2023/12/04 02:11:40;;;;;;;29.60;20.43;;;0.00;99.90;;;;;;5039880;28;20904;-78
2023/12/04 02:14:09;;;;;;;26.10;17.63;;;0.00;99.90;;;;;;5038160;28;20558;-77
2023/12/04 02:16:41;;;;;;;27.43;18.80;;;0.00;99.90;;;;;;5039707;28;20434;-78
2023/12/04 02:19:12;;;;;;;28.33;19.03;;;0.00;99.90;;;;;;5038518;28;20537;-77
2023/12/04 02:21:40;;;;;;;26.80;18.60;;;0.00;99.90;;;;;;5039845;28;20416;-77
2023/12/04 02:24:11;;;;;;;23.37;17.80;;;0.00;99.90;;;;;;5035422;28;20471;-77
2023/12/04 02:26:45;;;;;;;25.47;16.73;;;0.00;99.90;;;;;;5035177;28;20971;-77
2023/12/04 02:29:20;;;;;;;26.97;18.13;;;0.10;99.90;;;;;;5036883;28;20419;-78
2023/12/04 02:31:51;;;;;;;25.03;17.90;;;0.10;99.90;;;;;;5035104;28;20447;-78
2023/12/04 02:34:21;;;;;;;24.57;18.27;;;0.10;99.90;;;;;;5034943;28;20945;-77
2023/12/04 02:36:50;;;;;;;26.17;17.80;;;0.10;99.90;;;;;;5034905;28;20439;-76
2023/12/04 02:39:21;;;;;;;25.63;18.33;;;0.10;99.90;;;;;;5034676;28;20532;-78
2023/12/04 02:41:49;;;;;;;27.20;18.23;;;0.10;99.90;;;;;;5034964;28;20474;-78
2023/12/04 02:44:17;;;;;;;25.47;18.60;;;0.10;99.90;;;;;;5034764;28;20493;-77
2023/12/04 02:46:46;;;;;;;22.77;16.30;;;0.20;99.90;;;;;;5036069;28;20851;-77
2023/12/04 02:49:14;;;;;;;25.20;18.57;;;0.10;99.90;;;;;;5034835;28;20459;-77
2023/12/04 02:51:42;;;;;;;24.60;15.90;;;0.20;99.90;;;;;;5036254;28;20441;-78
2023/12/04 02:54:11;;;;;;;23.37;15.90;;;0.10;99.90;;;;;;5035853;28;20467;-77
2023/12/04 02:56:40;;;;;;;24.97;16.10;;;0.20;99.90;;;;;;5035901;28;20452;-78
2023/12/04 02:59:09;;;;;;;26.73;18.73;;;0.20;99.90;;;;;;5036633;28;20583;-77
2023/12/04 03:01:37;;;;;;;25.70;17.20;;;0.20;99.90;;;;;;5037422;28;20435;-78
2023/12/04 03:04:05;;;;;;;23.83;17.03;;;0.20;99.90;;;;;;5036586;28;20467;-78
2023/12/04 03:06:33;;;;;;;26.20;19.27;;;0.20;99.90;;;;;;5036630;28;20462;-78
2023/12/04 03:09:02;;;;;;;24.80;17.47;;;0.20;99.90;;;;;;5036002;28;20485;-78
2023/12/04 03:11:30;;;;;;;26.83;17.13;;;0.20;99.90;;;;;;5037312;28;20436;-78
2023/12/04 03:14:01;;;;;;;24.70;18.23;;;0.20;99.90;;;;;;5036157;28;20475;-77
2023/12/04 03:16:30;;;;;;;22.40;16.90;;;0.20;99.90;;;;;;5036259;28;20443;-78
2023/12/04 03:18:58;;;;;;;23.17;16.57;;;0.20;99.90;;;;;;5037006;28;20991;-78
2023/12/04 03:21:28;;;;;;;24.67;17.90;;;0.20;99.90;;;;;;5035714;28;20448;-78
2023/12/04 03:23:56;;;;;;;24.60;16.40;;;0.20;99.90;;;;;;5035093;28;20905;-78
2023/12/04 03:26:25;;;;;;;25.80;17.30;;;0.20;99.90;;;;;;5035858;28;20469;-78
2023/12/04 03:28:53;;;;;;;24.47;16.50;;;0.20;99.90;;;;;;5035209;28;20475;-78
2023/12/04 03:31:24;;;;;;;24.57;17.70;;;0.20;99.90;;;;;;5035054;28;20904;-78
2023/12/04 03:33:52;;;;;;;26.30;18.10;;;0.20;99.90;;;;;;5034589;28;20482;-78
2023/12/04 03:36:20;;;;;;;26.20;19.10;;;0.20;99.90;;;;;;5034988;28;20427;-76
2023/12/04 03:38:48;;;;;;;25.77;19.07;;;0.20;99.90;;;;;;5033359;28;20883;-76
2023/12/04 03:41:17;;;;;;;23.87;16.23;;;0.20;99.90;;;;;;5033582;28;20996;-76
2023/12/04 03:43:45;;;;;;;27.90;18.50;;;0.20;99.90;;;;;;5033535;28;21023;-76
2023/12/04 03:46:13;;;;;;;26.23;17.97;;;0.20;99.90;;;;;;5033706;28;20871;-76
2023/12/04 03:48:43;;;;;;;26.07;19.17;;;0.20;99.90;;;;;;5033399;28;20444;-76
2023/12/04 03:51:12;;;;;;;29.10;19.00;;;0.20;99.90;;;;;;5033248;28;20447;-76
2023/12/04 03:53:40;;;;;;;24.43;19.50;;;0.20;99.90;;;;;;5033565;28;20558;-78
2023/12/04 03:56:09;;;;;;;25.57;16.83;;;0.20;99.90;;;;;;5035232;28;20437;-76
2023/12/04 03:58:38;;;;;;;26.10;18.20;;;0.20;99.90;;;;;;5034970;28;20494;-78
2023/12/04 04:01:07;;;;;;;26.23;17.63;;;0.20;99.90;;;;;;5033066;28;20452;-77
2023/12/04 04:03:35;;;;;;;26.70;18.70;;;0.20;99.90;;;;;;5032945;28;20469;-77
2023/12/04 04:06:06;;;;;;;24.47;15.80;;;0.20;99.90;;;;;;5033213;28;20854;-76
2023/12/04 04:08:35;;;;;;;24.20;17.10;;;0.20;99.90;;;;;;5032892;28;20538;-76
2023/12/04 04:11:04;;;;;;;28.17;18.73;;;0.20;99.90;;;;;;5032774;28;20444;-76
2023/12/04 04:13:32;;;;;;;25.37;18.30;;;0.20;99.90;;;;;;5034497;28;20514;-76
2023/12/04 04:16:01;;;;;;;25.27;18.47;;;0.20;99.90;;;;;;5032676;28;20821;-77
2023/12/04 04:18:29;;;;;;;23.43;17.20;;;0.20;99.90;;;;;;5032582;28;20445;-76
2023/12/04 04:20:58;;;;;;;25.93;19.83;;;0.20;99.90;;;;;;5032752;28;20815;-76
2023/12/04 04:23:27;;;;;;;25.57;17.73;;;0.20;99.90;;;;;;5032573;28;20471;-76
2023/12/04 04:25:55;;;;;;;21.60;14.33;;;0.20;99.90;;;;;;5032678;28;20481;-77
2023/12/04 04:28:24;;;;;;;25.30;18.00;;;0.20;99.90;;;;;;5032604;28;20481;-77
2023/12/04 04:30:52;;;;;;;25.47;17.43;;;0.20;99.90;;;;;;5032542;28;20808;-76
2023/12/04 04:33:20;;;;;;;26.90;17.67;;;0.20;99.90;;;;;;5034079;28;20534;-77
2023/12/04 04:35:48;;;;;;;25.50;18.50;;;0.20;99.90;;;;;;5032551;28;20449;-76
2023/12/04 04:38:17;;;;;;;23.67;17.87;;;0.20;99.90;;;;;;5032457;28;20881;-76
2023/12/04 04:40:46;;;;;;;29.37;18.93;;;0.20;99.90;;;;;;5032337;28;20507;-76
2023/12/04 04:43:14;;;;;;;27.63;19.27;;;0.30;99.90;;;;;;5032432;28;20517;-76
2023/12/04 04:45:43;;;;;;;29.53;18.27;;;0.20;99.90;;;;;;5032823;28;20948;-76
2023/12/04 04:48:11;;;;;;;32.23;21.73;;;0.30;99.90;;;;;;5032162;28;20946;-78
2023/12/04 04:50:39;;;;;;;33.33;23.13;;;0.30;99.90;;;;;;5033190;28;20857;-78
2023/12/04 04:53:07;;;;;;;33.80;21.73;;;0.30;99.90;;;;;;5032945;28;20988;-78
2023/12/04 04:55:36;;;;;;;31.20;21.60;;;0.30;99.90;;;;;;5032831;28;20883;-78
2023/12/04 04:58:17;;;;;;;27.87;18.63;;;0.30;99.90;;;;;;5032498;28;20929;-77
2023/12/04 05:00:46;;;;;;;28.40;19.10;;;0.30;99.90;;;;;;5032014;28;20481;-77
2023/12/04 05:03:15;;;;;;;25.20;20.40;;;0.30;99.90;;;;;;5033505;28;20457;-76
2023/12/04 05:05:43;;;;;;;24.57;21.53;;;0.30;99.90;;;;;;5032325;28;20458;-76
2023/12/04 05:08:11;;;;;;;25.30;18.03;;;0.30;99.90;;;;;;5032025;28;20448;-77
2023/12/04 05:10:40;;;;;;;28.13;18.87;;;0.30;99.90;;;;;;5032043;28;20447;-76
2023/12/04 05:13:08;;;;;;;25.90;17.90;;;0.30;99.90;;;;;;5032069;28;20471;-78
2023/12/04 05:15:38;;;;;;;26.53;19.27;;;0.30;99.90;;;;;;5032391;28;20449;-79
2023/12/04 05:18:06;;;;;;;24.93;16.63;;;0.30;99.90;;;;;;5032143;28;20451;-76
2023/12/04 05:20:34;;;;;;;28.30;18.40;;;0.30;99.90;;;;;;5032002;28;20476;-76
2023/12/04 05:23:03;;;;;;;25.57;16.87;;;0.30;99.90;;;;;;5031823;28;20461;-76
2023/12/04 05:25:31;;;;;;;28.00;20.50;;;0.30;99.90;;;;;;5031856;28;20450;-78
2023/12/04 05:28:08;;;;;;;26.97;17.30;;;0.20;99.90;;;;;;5033438;28;20428;-78
2023/12/04 05:30:38;;;;;;;26.50;17.87;;;0.30;99.90;;;;;;5034055;28;20470;-78
2023/12/04 05:33:07;;;;;;;24.80;18.27;;;0.30;99.90;;;;;;5033242;28;20875;-76
2023/12/04 05:35:37;;;;;;;25.63;18.37;;;0.30;99.90;;;;;;5031917;28;20972;-78
2023/12/04 05:38:05;;;;;;;26.43;17.77;;;0.30;99.90;;;;;;5032232;28;20510;-78
2023/12/04 05:40:33;;;;;;;28.23;19.10;;;0.30;99.90;;;;;;5032397;28;20519;-79
2023/12/04 05:43:01;;;;;;;25.37;16.97;;;0.30;99.90;;;;;;5033257;28;20488;-79
2023/12/04 05:45:30;;;;;;;28.27;19.50;;;0.30;99.90;;;;;;5032027;28;20554;-77
2023/12/04 05:48:00;;;;;;;22.90;17.73;;;0.30;99.90;;;;;;5033174;28;20428;-76
2023/12/04 05:50:28;;;;;;;28.90;20.53;;;0.30;99.90;;;;;;5031593;28;20459;-76
2023/12/04 05:52:56;;;;;;;27.07;18.60;;;0.30;99.90;;;;;;5031542;28;20463;-76
2023/12/04 05:55:24;;;;;;;29.33;19.33;;;0.30;99.90;;;;;;5031747;28;20497;-76
2023/12/04 05:57:52;;;;;;;25.20;17.50;;;0.30;99.90;;;;;;5031694;28;20447;-76
2023/12/04 06:00:21;;;;;;;25.83;17.80;;;0.30;99.90;;;;;;5036364;28;20979;-77
2023/12/04 06:02:54;;;;;;;25.47;20.20;;;0.30;99.90;;;;;;5036967;28;20491;-78
2023/12/04 06:05:24;;;;;;;28.93;18.10;;;0.30;99.90;;;;;;5035820;28;20808;-77
2023/12/04 06:07:52;;;;;;;27.90;18.70;;;0.30;99.90;;;;;;5036119;28;20506;-78
2023/12/04 06:10:20;;;;;;;26.63;18.73;;;0.30;99.90;;;;;;5038435;28;20436;-77
2023/12/04 06:12:49;;;;;;;25.83;19.13;;;0.30;99.90;;;;;;5038725;28;20463;-77
2023/12/04 06:15:17;;;;;;;27.83;19.60;;;0.30;99.90;;;;;;5039037;28;20542;-78
2023/12/04 06:17:46;;;;;;;28.30;20.10;;;0.30;99.90;;;;;;5036559;28;20483;-78
2023/12/04 06:20:14;;;;;;;27.57;18.57;;;0.40;99.90;;;;;;5036638;28;21039;-78
2023/12/04 06:22:45;;;;;;;25.90;19.37;;;0.40;99.90;;;;;;5037472;28;20501;-78
2023/12/04 06:25:14;;;;;;;26.90;18.37;;;0.40;99.90;;;;;;5038057;28;20970;-78
2023/12/04 06:27:43;;;;;;;28.43;20.03;;;0.40;99.90;;;;;;5036271;28;20447;-78
2023/12/04 06:30:12;;;;;;;29.23;20.43;;;0.40;99.90;;;;;;5036661;28;20811;-78
2023/12/04 06:32:41;;;;;;;27.50;19.00;;;0.40;99.90;;;;;;5037572;28;20556;-78
2023/12/04 06:35:11;;;;;;;26.97;18.13;;;0.40;99.90;;;;;;5036067;28;20462;-78
2023/12/04 06:37:40;;;;;;;26.90;19.50;;;0.40;99.90;;;;;;5037919;28;20454;-79
2023/12/04 06:40:11;;;;;;;29.23;18.27;;;0.40;99.90;;;;;;5036424;28;20555;-79
2023/12/04 06:42:40;;;;;;;30.20;19.10;;;0.40;99.90;;;;;;5036242;28;20879;-80
2023/12/04 06:45:10;;;;;;;30.40;20.70;;;0.40;99.90;;;;;;5036138;28;20452;-79
2023/12/04 06:47:41;;;;;;;25.00;16.90;;;0.40;99.90;;;;;;5036517;28;20546;-79
2023/12/04 06:50:09;;;;;;;27.33;19.90;;;0.40;99.90;;;;;;5037210;28;20448;-79
2023/12/04 06:52:37;;;;;;;26.20;17.03;;;0.40;99.90;;;;;;5035223;28;20502;-79
2023/12/04 06:55:07;;;;;;;29.47;21.13;;;0.40;99.90;;;;;;5037339;28;20479;-79
2023/12/04 06:57:36;;;;;;;26.07;19.23;;;0.40;99.90;;;;;;5035993;28;20471;-80
2023/12/04 07:00:07;;;;;;;26.73;19.17;;;0.40;99.90;;;;;;5036739;28;20518;-78
2023/12/04 07:02:49;;;;;;;23.70;17.40;;;0.50;99.90;;;;;;5035067;28;20485;-78
2023/12/04 07:05:18;;;;;;;26.83;19.40;;;0.40;99.90;;;;;;5041414;28;20443;-78
2023/12/04 07:07:46;;;;;;;24.60;18.10;;;0.50;99.90;;;;;;5039177;28;20480;-78
2023/12/04 07:10:15;;;;;;;28.20;20.27;;;0.50;99.90;;;;;;5038905;28;20452;-78
2023/12/04 07:12:46;;;;;;;27.50;18.50;;;0.50;99.90;;;;;;5039112;28;20476;-78
2023/12/04 07:15:14;;;;;;;28.07;17.67;;;0.50;99.90;;;;;;5039161;28;20447;-78
2023/12/04 07:17:42;;;;;;;27.40;20.10;;;0.50;99.90;;;;;;5038859;28;20444;-78
2023/12/04 07:20:12;;;;;;;22.77;17.90;;;0.50;99.90;;;;;;5039489;28;20452;-78
2023/12/04 07:22:41;;;;;;;25.00;16.60;;;0.50;99.90;;;;;;5038175;28;20499;-79
2023/12/04 07:25:09;;;;;;;26.00;18.00;;;0.50;99.90;;;;;;5038806;28;20949;-78
2023/12/04 07:27:38;;;;;;;27.10;19.23;;;0.50;99.90;;;;;;5038375;28;20807;-78
2023/12/04 07:30:09;;;;;;;26.27;18.80;;;0.50;99.90;;;;;;5039056;28;20459;-78
2023/12/04 07:32:37;;;;;;;25.80;17.30;;;0.50;99.90;;;;;;5038572;28;20475;-77
2023/12/04 07:35:07;;;;;;;22.83;16.97;;;0.50;99.90;;;;;;5039510;28;20451;-78
2023/12/04 07:37:35;;;;;;;25.17;18.67;;;0.50;99.90;;;;;;5038509;28;20515;-78
2023/12/04 07:40:05;;;;;;;23.40;16.70;;;0.50;99.90;;;;;;5039081;28;20472;-78
2023/12/04 07:42:34;;;;;;;25.03;18.13;;;0.50;99.90;;;;;;5038724;28;20562;-78
2023/12/04 07:45:02;;;;;;;22.63;16.73;;;0.50;99.90;;;;;;5039909;28;21057;-78
2023/12/04 07:47:32;;;;;;;23.10;17.40;;;0.50;99.90;;;;;;5039910;28;20475;-79
2023/12/04 07:50:00;;;;;;;23.83;17.90;;;0.50;99.90;;;;;;5039673;28;20438;-78
2023/12/04 07:52:29;;;;;;;24.27;17.10;;;0.50;99.90;;;;;;5038527;28;20799;-78
2023/12/04 07:54:57;;;;;;;24.77;17.40;;;0.60;99.90;;;;;;5038415;28;20543;-78
2023/12/04 07:57:26;;;;;;;20.73;15.63;;;0.60;99.90;;;;;;5038470;28;20461;-78
2023/12/04 07:59:54;;;;;;;23.63;16.97;;;0.60;99.90;;;;;;5038128;28;20505;-79
2023/12/04 08:02:22;;;;;;;23.20;18.07;;;0.60;99.90;;;;;;5037770;28;20475;-78
2023/12/04 08:04:53;;;;;;;24.77;19.00;;;0.60;99.90;;;;;;5038456;28;20444;-79
2023/12/04 08:07:21;;;;;;;23.30;16.90;;;0.60;99.90;;;;;;5037536;28;20448;-79
2023/12/04 08:09:49;;;;;;;21.87;17.17;;;0.60;99.90;;;;;;5039073;28;20863;-80
2023/12/04 08:12:18;;;;;;;22.43;16.20;;;0.60;99.90;;;;;;5036683;28;20462;-80
2023/12/04 08:14:47;;;;;;;22.43;17.17;;;0.60;99.90;;;;;;5038978;28;20456;-80
2023/12/04 08:17:15;;;;;;;23.27;16.73;;;0.60;99.90;;;;;;5038219;28;20519;-80
2023/12/04 08:19:43;;;;;;;24.07;17.53;;;0.70;99.90;;;;;;5041973;28;20456;-80
2023/12/04 08:22:13;;;;;;;20.23;15.33;;;0.70;99.90;;;;;;5042218;28;20469;-80
2023/12/04 08:24:42;;;;;;;23.10;16.87;;;0.70;99.90;;;;;;5041885;28;20455;-81
2023/12/04 08:27:10;;;;;;;21.43;17.53;;;0.70;99.90;;;;;;5041838;28;20460;-80
2023/12/04 08:29:41;;;;;;;23.53;17.97;;;0.70;99.90;;;;;;5044135;28;20460;-81
2023/12/04 08:32:09;;;;;;;21.73;15.90;;;0.70;99.90;;;;;;5042729;28;20467;-80
2023/12/04 08:34:38;;;;;;;20.37;14.40;;;0.70;99.90;;;;;;5042421;28;20456;-80
2023/12/04 08:37:06;;;;;;;24.47;16.83;;;0.70;99.90;;;;;;5042114;28;20457;-80
2023/12/04 08:39:36;;;;;;;24.73;18.03;;;0.70;99.90;;;;;;5041918;28;20812;-80
2023/12/04 08:42:04;;;;;;;21.37;15.87;;;0.70;99.90;;;;;;5042054;28;20473;-81
2023/12/04 08:44:40;;;;;;;21.60;16.83;;;0.70;99.90;;;;;;5042195;28;20819;-80
2023/12/04 08:47:08;;;;;;;21.87;16.70;;;0.80;99.90;;;;;;5040808;28;20457;-81
2023/12/04 08:49:40;;;;;;;22.20;17.73;;;0.80;99.90;;;;;;5041111;28;20449;-80
2023/12/04 08:52:16;;;;;;;21.03;15.37;;;0.80;99.90;;;;;;5041165;28;20544;-80
2023/12/04 08:54:46;;;;;;;21.53;15.70;;;0.80;99.90;;;;;;5042938;28;20446;-80
2023/12/04 08:57:14;;;;;;;21.47;16.17;;;0.80;99.90;;;;;;5042834;28;20466;-80
2023/12/04 08:59:43;;;;;;;22.10;16.13;;;0.80;99.90;;;;;;5043166;28;20440;-80
2023/12/04 09:02:11;;;;;;;21.13;16.30;;;0.80;99.90;;;;;;5041171;28;20470;-80
2023/12/04 09:04:42;;;;;;;19.30;14.77;;;0.80;99.90;;;;;;5041535;28;20439;-80
2023/12/04 09:07:11;;;;;;;21.87;16.87;;;0.80;99.90;;;;;;5041871;28;20451;-80
2023/12/04 09:10:01;;;;;;;26.13;16.17;;;0.90;99.90;;;;;;5041543;28;20453;-80
2023/12/04 09:12:37;;;;;;;21.27;15.37;;;0.90;99.90;;;;;;5043051;28;20450;-80
2023/12/04 09:15:06;;;;;;;21.97;18.13;;;0.90;99.90;;;;;;5041813;28;20439;-80
2023/12/04 09:17:36;;;;;;;22.73;16.60;;;0.90;99.90;;;;;;5041213;28;20509;-81
2023/12/04 09:20:08;;;;;;;19.80;16.30;;;0.90;99.90;;;;;;5041219;28;20424;-81
2023/12/04 09:22:38;;;;;;;19.07;15.20;;;0.90;99.90;;;;;;5039810;28;20579;-80
2023/12/04 09:25:21;;;;;;;21.57;15.63;;;0.90;99.90;;;;;;5041699;28;20421;-80
2023/12/04 09:27:49;;;;;;;20.97;15.70;;;0.90;99.90;;;;;;5039710;28;20517;-79
2023/12/04 09:30:18;;;;;;;21.13;15.70;;;0.90;99.90;;;;;;5037367;28;20499;-80
2023/12/04 09:32:47;;;;;;;21.70;15.13;;;0.90;99.90;;;;;;5039436;28;20473;-80
2023/12/04 09:35:16;;;;;;;20.33;15.60;;;0.90;99.90;;;;;;5042893;28;20496;-80
2023/12/04 09:37:45;;;;;;;20.87;15.87;;;1.00;99.90;;;;;;5043211;28;20457;-80
2023/12/04 09:40:14;;;;;;;21.70;15.30;;;1.00;99.90;;;;;;5044471;28;20557;-81
2023/12/04 09:42:43;;;;;;;20.10;16.23;;;1.00;99.90;;;;;;5042247;28;20532;-79
2023/12/04 09:45:13;;;;;;;22.00;16.53;;;1.00;99.90;;;;;;5042663;28;20444;-80
2023/12/04 09:47:43;;;;;;;20.97;15.80;;;1.10;99.90;;;;;;5041991;28;20482;-80
2023/12/04 09:50:13;;;;;;;18.70;14.43;;;1.10;99.90;;;;;;5042185;28;20537;-80
2023/12/04 09:52:41;;;;;;;18.70;15.93;;;1.10;99.90;;;;;;5041755;28;20472;-80
2023/12/04 09:55:10;;;;;;;20.57;16.17;;;1.10;99.90;;;;;;5042128;28;20491;-80
2023/12/04 09:57:38;;;;;;;22.00;15.20;;;1.10;99.90;;;;;;5040575;28;20484;-79
2023/12/04 10:00:12;;;;;;;21.53;17.50;;;1.10;99.90;;;;;;5044645;28;20444;-81
2023/12/04 10:02:41;;;;;;;21.67;17.40;;;1.10;99.90;;;;;;5041789;28;20487;-80
2023/12/04 10:05:10;;;;;;;19.03;15.50;;;1.10;99.90;;;;;;5041220;28;20880;-80
2023/12/04 10:07:38;;;;;;;19.10;14.90;;;1.20;99.90;;;;;;5040132;28;20464;-80
2023/12/04 10:10:08;;;;;;;19.73;15.53;;;1.20;99.90;;;;;;5039181;28;20505;-80
2023/12/04 10:12:37;;;;;;;24.37;16.20;;;1.20;99.90;;;;;;5038227;28;20515;-81
2023/12/04 10:15:09;;;;;;;19.80;16.90;;;1.20;99.90;;;;;;5038440;28;20519;-80
2023/12/04 10:17:39;;;;;;;17.23;14.13;;;1.20;99.90;;;;;;5037609;28;20488;-81
2023/12/04 10:20:12;;;;;;;18.60;15.17;;;1.20;99.90;;;;;;5037807;28;20456;-80
2023/12/04 10:22:41;;;;;;;18.90;16.10;;;1.20;99.90;;;;;;5037237;28;20480;-81
2023/12/04 10:25:16;;;;;;;20.23;15.93;;;1.20;99.90;;;;;;5039125;28;20480;-80
2023/12/04 10:27:44;;;;;;;19.73;16.10;;;1.30;99.90;;;;;;5039531;28;20626;-81
2023/12/04 10:30:26;;;;;;;17.60;15.30;;;1.30;99.90;;;;;;5039703;28;20493;-81
2023/12/04 10:33:00;;;;;;;18.97;15.23;;;1.30;99.90;;;;;;5040507;28;20469;-81
2023/12/04 10:35:36;;;;;;;21.13;15.93;;;1.30;99.90;;;;;;5039426;28;20465;-82
2023/12/04 10:38:05;;;;;;;19.33;14.13;;;1.30;99.90;;;;;;5040112;28;20489;-82
2023/12/04 10:40:34;;;;;;;16.83;13.40;;;1.40;99.90;;;;;;5039370;28;20476;-82
2023/12/04 10:43:13;;;;;;;15.80;13.27;;;1.40;99.90;;;;;;5040633;28;20571;-81
2023/12/04 10:45:45;;;;;;;17.87;14.60;;;1.40;99.90;;;;;;5038048;28;20453;-82
2023/12/04 10:48:14;;;;;;;20.50;14.33;;;1.50;99.90;;;;;;5039045;28;20499;-80
2023/12/04 10:50:44;;;;;;;17.30;15.50;;;1.40;99.90;;;;;;5038732;28;21012;-82
2023/12/04 10:53:15;;;;;;;16.60;14.27;;;1.50;99.90;;;;;;5038176;28;20478;-82
2023/12/04 10:55:44;;;;;;;16.83;13.40;;;1.50;99.90;;;;;;5038981;28;20537;-82
2023/12/04 10:58:14;;;;;;;17.40;14.93;;;1.60;99.90;;;;;;5038811;28;20460;-81
2023/12/04 11:00:46;;;;;;;17.77;14.80;;;1.50;99.90;;;;;;5039759;28;20455;-82
2023/12/04 11:03:19;;;;;;;18.70;14.00;;;1.50;99.90;;;;;;5039546;28;20561;-82
2023/12/04 11:05:54;;;;;;;16.97;15.13;;;1.50;99.90;;;;;;5039576;28;20434;-81
2023/12/04 11:08:25;;;;;;;18.63;14.40;;;1.50;99.90;;;;;;5039418;28;20507;-81
2023/12/04 11:10:59;;;;;;;17.87;15.27;;;1.60;99.90;;;;;;5038087;28;20442;-82
2023/12/04 11:13:30;;;;;;;16.80;12.53;;;1.60;99.90;;;;;;5037967;28;20475;-82
2023/12/04 11:16:03;;;;;;;16.23;13.23;;;1.60;99.90;;;;;;5037786;28;20453;-81
2023/12/04 11:18:36;;;;;;;19.20;14.60;;;1.60;99.90;;;;;;5038182;28;20448;-82
2023/12/04 11:21:08;;;;;;;16.27;13.50;;;1.60;99.90;;;;;;5038554;28;20481;-81
2023/12/04 11:23:36;;;;;;;15.53;13.40;;;1.70;99.90;;;;;;5038265;28;20541;-83
2023/12/04 11:26:06;;;;;;;15.73;13.83;;;1.70;99.90;;;;;;5038003;28;20473;-82
2023/12/04 11:28:36;;;;;;;16.53;14.83;;;1.70;99.90;;;;;;5038915;28;20466;-83
2023/12/04 11:31:07;;;;;;;15.50;12.80;;;1.70;99.90;;;;;;5042043;28;20442;-82
2023/12/04 11:33:36;;;;;;;17.50;14.30;;;1.80;99.90;;;;;;5038791;28;20472;-83
2023/12/04 11:36:10;;;;;;;15.30;12.77;;;1.80;99.90;;;;;;5039077;28;20460;-83
2023/12/04 11:38:46;;;;;;;15.27;13.13;;;1.80;99.90;;;;;;5040162;28;20453;-83
2023/12/04 11:41:19;;;;;;;16.20;12.93;;;1.80;99.90;;;;;;5038926;28;20434;-83
2023/12/04 11:43:55;;;;;;;14.33;12.00;;;1.80;99.90;;;;;;5041048;28;20490;-83
2023/12/04 11:46:27;;;;;;;15.20;12.60;;;1.80;99.90;;;;;;5038827;28;20448;-83
2023/12/04 11:48:57;;;;;;;13.90;11.70;;;1.90;99.90;;;;;;5038733;28;20487;-82
2023/12/04 11:51:50;;;;;;;16.53;13.77;;;1.90;99.90;;;;;;5041000;28;20465;-82
2023/12/04 11:54:22;;;;;;;16.87;14.03;;;1.90;99.90;;;;;;5037278;28;20818;-82
2023/12/04 11:57:00;;;;;;;15.27;13.77;;;1.90;99.90;;;;;;5036912;28;20473;-83
2023/12/04 11:59:28;;;;;;;15.67;13.30;;;1.90;99.90;;;;;;5037739;28;20450;-82
2023/12/04 12:01:59;;;;;;;14.87;12.70;;;1.90;99.90;;;;;;5036401;28;20545;-82
2023/12/04 12:04:28;;;;;;;16.30;14.60;;;1.90;99.90;;;;;;5037552;28;20454;-84
2023/12/04 12:07:02;;;;;;;17.00;13.43;;;1.90;99.90;;;;;;5036578;28;20457;-82
2023/12/04 12:09:31;;;;;;;14.47;12.50;;;2.00;99.90;;;;;;5036061;28;20457;-83
2023/12/04 12:12:01;;;;;;;15.30;13.70;;;2.00;99.90;;;;;;5036266;28;20790;-82
2023/12/04 12:14:29;;;;;;;15.33;12.73;;;2.00;99.90;;;;;;5035888;28;20478;-83
2023/12/04 12:17:01;;;;;;;15.30;13.30;;;2.00;99.90;;;;;;5036283;28;20448;-84
2023/12/04 12:19:30;;;;;;;15.03;13.13;;;2.00;99.90;;;;;;5035996;28;20443;-84
2023/12/04 12:21:58;;;;;;;14.27;12.67;;;2.00;99.90;;;;;;5036572;28;20442;-82
2023/12/04 12:24:27;;;;;;;18.17;14.30;;;2.00;99.90;;;;;;5036113;28;20470;-84
2023/12/04 12:26:55;;;;;;;14.93;13.20;;;2.00;99.90;;;;;;5038152;28;20939;-83
2023/12/04 12:29:25;;;;;;;15.67;14.13;;;2.00;99.90;;;;;;5036249;28;20464;-83
2023/12/04 12:31:54;;;;;;;15.80;14.10;;;2.00;99.90;;;;;;5036581;28;20446;-83
2023/12/04 12:34:23;;;;;;;16.40;14.10;;;2.00;99.90;;;;;;5036143;28;20466;-84
2023/12/04 12:36:52;;;;;;;16.40;14.30;;;2.00;99.90;;;;;;5037269;28;20912;-83
2023/12/04 12:39:20;;;;;;;16.60;14.63;;;2.00;99.90;;;;;;5035491;28;20457;-84
2023/12/04 12:41:49;;;;;;;16.47;13.83;;;2.00;99.90;;;;;;5035674;28;20450;-83
2023/12/04 12:44:17;;;;;;;16.60;14.00;;;2.00;99.90;;;;;;5035113;28;20879;-83
2023/12/04 12:46:49;;;;;;;14.20;12.70;;;2.00;99.90;;;;;;5035333;28;20453;-82